CheckWX is a tool to help pilots better visualize weather data.  It is not intended as a substitute for an official pre-flight weather briefing.

01:53:42 UTC

CYSJ TAF
Saint John Airport
Saint John, Canada
TAF CYSJ 182338Z 1900/1912 34005KT P6SM FEW060 TEMPO 1900/1912 BKN060 RMK NXT FCST BY 190600Z

Mar-19@
00:00 UTC

Mar-19 @ 00:00 UTC

Mar-19@
12:00 UTC

Mar-19 @ 12:00 UTC

TAF CYSJ 182338Z 1900/1912 34005KT P6SM FEW060
Wind
  • 340° at 5 KTS
Cloud Levels
  • Few at 6,000' AGL

Mar-19@
00:00 UTC

Mar-19 @ 00:00 UTC

Mar-19@
12:00 UTC

Mar-19 @ 12:00 UTC

TEMPO 1900/1912 BKN060 RMK NXT FCST BY 190600Z

Temporary

Temporary Changes expected for less than half the time period

Cloud Levels
  • Broken at 6,000' AGL